Time;durP1;ratioP1;P1;durP2;ratioP2;P2;SDS_P1;SDS_P2;PMS_P1;PMS_P2;Temp;Humidity;BMP_temperature;BMP_pressure;BME280_temperature;BME280_humidity;BME280_pressure;Samples;Min_cycle;Max_cycle;Signal;HPM_P1;HPM_P2
2023/07/02 00:01:00;;;;;;;13.93;8.07;;;;;;;;;;5056456;28;20033;-63
2023/07/02 00:03:26;;;;;;;14.07;9.03;;;;;;;;;;5068638;28;20043;-62
2023/07/02 00:05:55;;;;;;;14.63;8.77;;;;;;;;;;5068790;28;20049;-62
2023/07/02 00:08:22;;;;;;;12.40;7.97;;;;;;;;;;5069562;28;20123;-62
2023/07/02 00:10:48;;;;;;;12.97;8.67;;;;;;;;;;5069708;28;20041;-62
2023/07/02 00:13:14;;;;;;;18.43;11.83;;;;;;;;;;5069544;28;20147;-62
2023/07/02 00:15:41;;;;;;;15.20;9.30;;;;;;;;;;5069586;28;20041;-62
2023/07/02 00:18:07;;;;;;;12.40;8.40;;;;;;;;;;5069169;28;20044;-62
2023/07/02 00:20:37;;;;;;;10.50;8.60;;;;;;;;;;5069554;28;20044;-62
2023/07/02 00:23:03;;;;;;;18.00;9.57;;;;;;;;;;5069605;28;20044;-62
2023/07/02 00:25:29;;;;;;;13.77;9.33;;;;;;;;;;5069408;28;20139;-63
2023/07/02 00:27:55;;;;;;;14.33;8.87;;;;;;;;;;5066541;28;20076;-62
2023/07/02 00:30:21;;;;;;;19.00;10.80;;;;;;;;;;5067646;28;20130;-62
2023/07/02 00:32:47;;;;;;;20.03;8.93;;;;;;;;;;5067641;28;20453;-62
2023/07/02 00:35:13;;;;;;;14.07;10.13;;;;;;;;;;5067935;28;20056;-62
2023/07/02 00:37:39;;;;;;;12.03;8.13;;;;;;;;;;5067007;28;20045;-62
2023/07/02 00:40:06;;;;;;;15.83;8.73;;;;;;;;;;5049296;28;20070;-62
2023/07/02 00:42:32;;;;;;;13.03;8.80;;;;;;;;;;5049366;28;20045;-62
2023/07/02 00:45:02;;;;;;;18.03;9.07;;;;;;;;;;5049155;28;20041;-61
2023/07/02 00:47:28;;;;;;;12.20;7.33;;;;;;;;;;5048891;28;20056;-62
2023/07/02 00:49:54;;;;;;;16.73;8.57;;;;;;;;;;5048625;28;20495;-62
2023/07/02 00:52:21;;;;;;;15.80;8.07;;;;;;;;;;5050602;28;20048;-61
2023/07/02 00:54:47;;;;;;;14.67;7.10;;;;;;;;;;5068724;28;20048;-62
2023/07/02 00:57:13;;;;;;;15.27;9.47;;;;;;;;;;5064950;28;20846;-62
2023/07/02 00:59:39;;;;;;;16.43;8.20;;;;;;;;;;5048786;28;20086;-61
2023/07/02 01:02:06;;;;;;;19.03;7.80;;;;;;;;;;5048025;28;20045;-61
2023/07/02 01:04:32;;;;;;;17.77;8.60;;;;;;;;;;5048585;28;20507;-61
2023/07/02 01:06:58;;;;;;;12.33;7.23;;;;;;;;;;5050006;28;20075;-61
2023/07/02 01:09:27;;;;;;;20.30;8.40;;;;;;;;;;5048205;28;20561;-61
2023/07/02 01:11:55;;;;;;;16.63;7.30;;;;;;;;;;5048518;28;20080;-61
2023/07/02 01:14:32;;;;;;;20.17;7.63;;;;;;;;;;5048651;28;20567;-62
2023/07/02 01:16:59;;;;;;;19.67;7.10;;;;;;;;;;5048649;28;20041;-62
2023/07/02 01:19:33;;;;;;;19.53;7.43;;;;;;;;;;5063413;28;20048;-62
2023/07/02 01:22:00;;;;;;;24.67;9.00;;;;;;;;;;5052097;28;20048;-62
2023/07/02 01:24:26;;;;;;;21.87;7.77;;;;;;;;;;5068386;28;20098;-62
2023/07/02 01:26:52;;;;;;;27.10;8.70;;;;;;;;;;5066964;28;20080;-61
2023/07/02 01:29:19;;;;;;;26.57;8.40;;;;;;;;;;5048254;28;20072;-62
2023/07/02 01:31:45;;;;;;;24.43;8.07;;;;;;;;;;5052157;28;20040;-62
2023/07/02 01:34:12;;;;;;;24.33;8.70;;;;;;;;;;5052959;28;20144;-62
2023/07/02 01:36:38;;;;;;;20.30;8.30;;;;;;;;;;5048274;28;20044;-62
2023/07/02 01:39:04;;;;;;;23.77;8.07;;;;;;;;;;5048216;28;20047;-61
2023/07/02 01:41:30;;;;;;;27.00;8.87;;;;;;;;;;5049589;28;20041;-61
2023/07/02 01:43:56;;;;;;;24.07;8.03;;;;;;;;;;5048001;28;20143;-61
2023/07/02 01:46:22;;;;;;;22.50;8.17;;;;;;;;;;5047800;28;20128;-61
2023/07/02 01:48:48;;;;;;;21.27;8.37;;;;;;;;;;5048156;28;20495;-61
2023/07/02 01:51:14;;;;;;;23.77;9.00;;;;;;;;;;5057610;28;20084;-61
2023/07/02 01:53:40;;;;;;;20.63;8.23;;;;;;;;;;5062966;28;20166;-61
2023/07/02 01:56:06;;;;;;;22.30;8.60;;;;;;;;;;5048429;28;20133;-61
2023/07/02 01:58:32;;;;;;;30.07;8.73;;;;;;;;;;5048322;28;20069;-61
2023/07/02 02:00:59;;;;;;;26.67;9.47;;;;;;;;;;5050324;28;20171;-61
2023/07/02 02:03:25;;;;;;;28.77;8.97;;;;;;;;;;5066159;28;20051;-61
2023/07/02 02:05:51;;;;;;;29.87;9.53;;;;;;;;;;5068055;28;20078;-61
2023/07/02 02:08:17;;;;;;;25.77;9.33;;;;;;;;;;5068538;28;20044;-61
2023/07/02 02:10:43;;;;;;;26.70;9.47;;;;;;;;;;5067813;28;20044;-61
2023/07/02 02:13:09;;;;;;;29.83;9.50;;;;;;;;;;5066299;28;20118;-61
2023/07/02 02:15:35;;;;;;;29.30;10.40;;;;;;;;;;5050138;28;20036;-61
2023/07/02 02:18:01;;;;;;;26.33;9.07;;;;;;;;;;5068809;28;20044;-61
2023/07/02 02:20:27;;;;;;;24.60;8.23;;;;;;;;;;5066692;28;20085;-61
2023/07/02 02:22:53;;;;;;;28.87;10.67;;;;;;;;;;5066482;28;20037;-61
2023/07/02 02:25:19;;;;;;;25.47;8.77;;;;;;;;;;5068173;28;20042;-61
2023/07/02 02:27:45;;;;;;;28.53;10.20;;;;;;;;;;5056832;28;20569;-61
2023/07/02 02:30:11;;;;;;;23.87;9.20;;;;;;;;;;5047787;28;20069;-62
2023/07/02 02:32:37;;;;;;;27.10;9.70;;;;;;;;;;5047580;28;20526;-61
2023/07/02 02:35:03;;;;;;;24.57;9.57;;;;;;;;;;5048064;28;20084;-61
2023/07/02 02:37:30;;;;;;;27.37;10.03;;;;;;;;;;5066299;28;20045;-62
2023/07/02 02:39:57;;;;;;;26.57;9.90;;;;;;;;;;5067477;28;20569;-61
2023/07/02 02:42:24;;;;;;;27.43;9.33;;;;;;;;;;5067784;28;20092;-61
2023/07/02 02:44:50;;;;;;;28.13;9.00;;;;;;;;;;5067859;28;20052;-61
2023/07/02 02:47:16;;;;;;;28.73;9.00;;;;;;;;;;5067667;28;20478;-61
2023/07/02 02:49:42;;;;;;;25.80;9.23;;;;;;;;;;5068150;28;20051;-61
2023/07/02 02:52:08;;;;;;;24.37;10.27;;;;;;;;;;5064966;28;20048;-61
2023/07/02 02:54:34;;;;;;;24.40;9.47;;;;;;;;;;5067890;28;20410;-61
2023/07/02 02:57:00;;;;;;;25.13;9.47;;;;;;;;;;5067005;28;20033;-61
2023/07/02 02:59:26;;;;;;;27.17;10.70;;;;;;;;;;5070606;28;20267;-60
2023/07/02 03:01:52;;;;;;;23.80;9.43;;;;;;;;;;5071591;28;20055;-61
2023/07/02 03:04:18;;;;;;;47.17;12.47;;;;;;;;;;5061646;28;20398;-61
2023/07/02 03:06:45;;;;;;;28.17;10.20;;;;;;;;;;5051204;28;20299;-61
2023/07/02 03:09:11;;;;;;;31.00;10.47;;;;;;;;;;5064503;28;20052;-61
2023/07/02 03:11:37;;;;;;;27.60;10.27;;;;;;;;;;5055680;28;20048;-61
2023/07/02 03:14:03;;;;;;;33.23;10.87;;;;;;;;;;5070743;28;20059;-61
2023/07/02 03:16:29;;;;;;;30.57;11.00;;;;;;;;;;5071430;28;20072;-61
2023/07/02 03:18:55;;;;;;;33.23;10.57;;;;;;;;;;5071121;28;20068;-61
2023/07/02 03:21:21;;;;;;;29.67;9.33;;;;;;;;;;5071010;28;20056;-62
2023/07/02 03:23:47;;;;;;;27.30;9.70;;;;;;;;;;5070411;28;20041;-61
2023/07/02 03:26:13;;;;;;;27.60;10.10;;;;;;;;;;5068593;28;20044;-62
2023/07/02 03:28:39;;;;;;;25.23;9.47;;;;;;;;;;5070419;28;20473;-62
2023/07/02 03:31:05;;;;;;;32.37;10.80;;;;;;;;;;5070550;28;20521;-61
2023/07/02 03:33:32;;;;;;;29.10;9.37;;;;;;;;;;5068075;28;20045;-61
2023/07/02 03:35:58;;;;;;;36.10;10.03;;;;;;;;;;5050232;28;20052;-61
2023/07/02 03:38:24;;;;;;;32.80;10.27;;;;;;;;;;5049968;28;20045;-61
2023/07/02 03:40:50;;;;;;;29.37;10.87;;;;;;;;;;5050517;28;20096;-62
2023/07/02 03:43:16;;;;;;;26.67;9.47;;;;;;;;;;5056287;28;20045;-62
2023/07/02 03:45:42;;;;;;;27.27;10.17;;;;;;;;;;5063079;28;20041;-61
2023/07/02 03:48:08;;;;;;;27.80;10.57;;;;;;;;;;5064619;28;20047;-61
2023/07/02 03:50:34;;;;;;;26.00;9.33;;;;;;;;;;5070303;28;20048;-61
2023/07/02 03:53:00;;;;;;;27.10;10.97;;;;;;;;;;5069569;28;20045;-61
2023/07/02 03:55:26;;;;;;;24.87;9.07;;;;;;;;;;5070192;28;20036;-61
2023/07/02 03:57:52;;;;;;;24.50;9.93;;;;;;;;;;5068199;28;20063;-61
2023/07/02 04:00:19;;;;;;;22.43;9.47;;;;;;;;;;5069382;28;20070;-61
2023/07/02 04:02:45;;;;;;;27.23;9.83;;;;;;;;;;5069835;28;20044;-61
2023/07/02 04:05:11;;;;;;;33.40;10.13;;;;;;;;;;5069917;28;20036;-62
2023/07/02 04:07:37;;;;;;;31.13;10.30;;;;;;;;;;5069401;28;20055;-61
2023/07/02 04:10:03;;;;;;;29.47;9.47;;;;;;;;;;5069877;28;20054;-61
2023/07/02 04:12:29;;;;;;;29.47;9.73;;;;;;;;;;5068599;28;20051;-61
2023/07/02 04:14:55;;;;;;;34.70;10.20;;;;;;;;;;5069539;28;20511;-61
2023/07/02 04:17:21;;;;;;;25.80;9.60;;;;;;;;;;5064443;28;20041;-61
2023/07/02 04:19:47;;;;;;;27.47;9.00;;;;;;;;;;5057497;28;20448;-61
2023/07/02 04:22:13;;;;;;;28.80;9.17;;;;;;;;;;5069058;28;20127;-61
2023/07/02 04:24:39;;;;;;;31.03;9.90;;;;;;;;;;5069431;28;20132;-61
2023/07/02 04:27:05;;;;;;;24.90;9.37;;;;;;;;;;5068450;28;20045;-61
2023/07/02 04:29:31;;;;;;;31.33;10.70;;;;;;;;;;5068975;28;20044;-61
2023/07/02 04:31:57;;;;;;;26.80;8.63;;;;;;;;;;5067268;28;20414;-61
2023/07/02 04:34:23;;;;;;;28.43;9.47;;;;;;;;;;5069325;28;20102;-61
2023/07/02 04:36:49;;;;;;;28.37;9.30;;;;;;;;;;5068312;28;20091;-61
2023/07/02 04:39:15;;;;;;;24.33;9.20;;;;;;;;;;5069350;28;20063;-61
2023/07/02 04:41:41;;;;;;;29.47;9.60;;;;;;;;;;5068854;28;20048;-61
2023/07/02 04:44:07;;;;;;;26.90;10.07;;;;;;;;;;5069164;28;20048;-61
2023/07/02 04:46:34;;;;;;;32.37;9.83;;;;;;;;;;5064902;28;20045;-62
2023/07/02 04:49:00;;;;;;;28.20;9.23;;;;;;;;;;5067279;28;20049;-61
2023/07/02 04:51:26;;;;;;;29.37;11.33;;;;;;;;;;5049232;28;20620;-61
2023/07/02 04:53:52;;;;;;;28.40;10.00;;;;;;;;;;5048706;28;20059;-61
2023/07/02 04:56:18;;;;;;;29.23;8.77;;;;;;;;;;5048683;28;20044;-63
2023/07/02 04:58:44;;;;;;;33.63;9.87;;;;;;;;;;5052325;28;20068;-61
2023/07/02 05:01:10;;;;;;;27.90;9.00;;;;;;;;;;5054186;28;20086;-61
2023/07/02 05:03:38;;;;;;;24.00;9.00;;;;;;;;;;5048566;28;20160;-61
2023/07/02 05:06:04;;;;;;;23.40;8.03;;;;;;;;;;5049568;28;20507;-61
2023/07/02 05:08:30;;;;;;;25.63;8.90;;;;;;;;;;5048513;28;20053;-61
2023/07/02 05:10:56;;;;;;;31.43;9.23;;;;;;;;;;5048267;28;20451;-61
2023/07/02 05:13:22;;;;;;;26.60;8.60;;;;;;;;;;5047571;28;20041;-61
2023/07/02 05:15:48;;;;;;;24.43;8.43;;;;;;;;;;5048763;28;20142;-61
2023/07/02 05:18:14;;;;;;;24.13;9.10;;;;;;;;;;5066022;28;20032;-61
2023/07/02 05:20:40;;;;;;;34.97;9.50;;;;;;;;;;5062079;28;20075;-61
2023/07/02 05:23:06;;;;;;;25.20;9.43;;;;;;;;;;5048713;28;20574;-61
2023/07/02 05:25:33;;;;;;;28.80;8.53;;;;;;;;;;5048275;28;20045;-61
2023/07/02 05:27:59;;;;;;;25.37;8.07;;;;;;;;;;5048273;28;20053;-61
2023/07/02 05:30:25;;;;;;;30.63;9.40;;;;;;;;;;5053699;28;20556;-61
2023/07/02 05:32:51;;;;;;;27.67;8.83;;;;;;;;;;5048122;28;20144;-61
2023/07/02 05:35:17;;;;;;;28.70;10.07;;;;;;;;;;5059052;28;20151;-62
2023/07/02 05:37:45;;;;;;;31.90;8.63;;;;;;;;;;5068428;28;20048;-61
2023/07/02 05:40:11;;;;;;;24.73;9.17;;;;;;;;;;5068611;28;20053;-61
2023/07/02 05:42:37;;;;;;;35.97;9.53;;;;;;;;;;5048637;28;20098;-61
2023/07/02 05:45:04;;;;;;;27.30;9.07;;;;;;;;;;5064252;28;20461;-60
2023/07/02 05:47:29;;;;;;;26.83;8.40;;;;;;;;;;5068102;28;20041;-60
2023/07/02 05:49:55;;;;;;;25.17;8.20;;;;;;;;;;5065359;28;20045;-60
2023/07/02 05:52:22;;;;;;;34.03;9.97;;;;;;;;;;5049382;28;20045;-60
2023/07/02 05:54:48;;;;;;;24.43;8.47;;;;;;;;;;5054510;28;20445;-60
2023/07/02 05:57:14;;;;;;;30.70;8.63;;;;;;;;;;5066885;28;20123;-60
2023/07/02 05:59:40;;;;;;;26.07;8.97;;;;;;;;;;5065950;28;20063;-60
2023/07/02 06:02:06;;;;;;;29.00;8.40;;;;;;;;;;5068194;28;20046;-60
2023/07/02 06:04:32;;;;;;;27.17;8.87;;;;;;;;;;5067942;28;20498;-60
2023/07/02 06:06:58;;;;;;;28.30;7.63;;;;;;;;;;5067407;28;20051;-60
2023/07/02 06:09:24;;;;;;;28.73;9.07;;;;;;;;;;5056957;28;20521;-60
2023/07/02 06:11:50;;;;;;;27.07;9.67;;;;;;;;;;5061590;28;20384;-59
2023/07/02 06:14:16;;;;;;;32.93;8.77;;;;;;;;;;5063118;28;20052;-60
2023/07/02 06:16:42;;;;;;;23.57;8.43;;;;;;;;;;5049287;28;20041;-61
2023/07/02 06:19:08;;;;;;;24.33;8.33;;;;;;;;;;5047678;28;20049;-61
2023/07/02 06:21:34;;;;;;;24.10;8.17;;;;;;;;;;5050388;28;20045;-60
2023/07/02 06:24:01;;;;;;;20.37;7.77;;;;;;;;;;5047760;28;20427;-60
2023/07/02 06:26:27;;;;;;;21.90;7.77;;;;;;;;;;5047794;28;20526;-61
2023/07/02 06:28:53;;;;;;;24.20;8.17;;;;;;;;;;5059144;28;20176;-60
2023/07/02 06:31:19;;;;;;;17.67;7.03;;;;;;;;;;5047656;28;20402;-62
2023/07/02 06:33:45;;;;;;;22.53;8.20;;;;;;;;;;5059196;28;20075;-60
2023/07/02 06:36:13;;;;;;;21.33;7.27;;;;;;;;;;5071514;28;20049;-60
2023/07/02 06:38:38;;;;;;;23.90;7.33;;;;;;;;;;5066112;28;20053;-61
2023/07/02 06:41:04;;;;;;;24.53;7.17;;;;;;;;;;5057208;28;20112;-60
2023/07/02 06:43:30;;;;;;;21.53;7.70;;;;;;;;;;5066878;28;20037;-61
2023/07/02 06:45:56;;;;;;;21.17;7.40;;;;;;;;;;5061751;28;20114;-60
2023/07/02 06:48:22;;;;;;;23.20;7.53;;;;;;;;;;5067107;28;20098;-60
2023/07/02 06:50:48;;;;;;;18.80;6.97;;;;;;;;;;5052295;28;20172;-60
2023/07/02 06:53:14;;;;;;;32.53;8.53;;;;;;;;;;5069609;28;20111;-60
2023/07/02 06:55:40;;;;;;;23.70;7.03;;;;;;;;;;5060563;28;20506;-61
2023/07/02 06:58:06;;;;;;;22.70;6.50;;;;;;;;;;5051749;28;20071;-60
2023/07/02 07:00:36;;;;;;;18.67;6.73;;;;;;;;;;5052027;28;20052;-60
2023/07/02 07:03:03;;;;;;;20.63;6.80;;;;;;;;;;5052653;28;20033;-60
2023/07/02 07:05:30;;;;;;;24.17;7.53;;;;;;;;;;5057995;28;20040;-60
2023/07/02 07:07:56;;;;;;;17.63;7.37;;;;;;;;;;5056300;28;20092;-60
2023/07/02 07:10:22;;;;;;;20.67;7.77;;;;;;;;;;5052314;28;20083;-61
2023/07/02 07:12:48;;;;;;;22.83;7.27;;;;;;;;;;5052374;28;20070;-60
2023/07/02 07:15:14;;;;;;;22.10;8.10;;;;;;;;;;5068367;28;20041;-60
2023/07/02 07:17:40;;;;;;;19.90;6.57;;;;;;;;;;5068725;28;20139;-60
2023/07/02 07:20:06;;;;;;;23.73;7.57;;;;;;;;;;5053182;28;20120;-60
2023/07/02 07:22:34;;;;;;;18.83;6.53;;;;;;;;;;5060707;28;20051;-60
2023/07/02 07:25:00;;;;;;;19.80;6.00;;;;;;;;;;5058796;28;20135;-60
2023/07/02 07:27:26;;;;;;;14.80;5.27;;;;;;;;;;5052732;28;20116;-60
2023/07/02 07:29:52;;;;;;;19.80;6.43;;;;;;;;;;5065984;28;20095;-59
2023/07/02 07:32:18;;;;;;;16.10;5.87;;;;;;;;;;5059002;28;20498;-59
2023/07/02 07:34:44;;;;;;;20.57;6.53;;;;;;;;;;5061760;28;20049;-60
2023/07/02 07:37:10;;;;;;;17.53;5.37;;;;;;;;;;5057044;28;20085;-60
2023/07/02 07:39:37;;;;;;;18.30;5.63;;;;;;;;;;5062195;28;20173;-60
2023/07/02 07:42:03;;;;;;;16.73;6.13;;;;;;;;;;5062692;28;20041;-60
2023/07/02 07:44:29;;;;;;;13.90;4.63;;;;;;;;;;5064350;28;20049;-60
2023/07/02 07:46:58;;;;;;;12.50;4.77;;;;;;;;;;5057673;28;20037;-61
2023/07/02 07:49:24;;;;;;;17.87;4.90;;;;;;;;;;5070160;28;20429;-59
2023/07/02 07:51:50;;;;;;;15.07;4.53;;;;;;;;;;5069936;28;20101;-60
2023/07/02 07:54:16;;;;;;;12.07;4.90;;;;;;;;;;5067604;28;20044;-60
2023/07/02 07:56:42;;;;;;;13.00;4.97;;;;;;;;;;5068108;28;20048;-60
2023/07/02 07:59:08;;;;;;;12.30;4.73;;;;;;;;;;5070234;28;20036;-60
2023/07/02 08:01:34;;;;;;;15.37;5.10;;;;;;;;;;5069899;28;20052;-60
2023/07/02 08:04:00;;;;;;;14.20;5.33;;;;;;;;;;5069237;28;20072;-60
2023/07/02 08:06:27;;;;;;;14.77;4.87;;;;;;;;;;5069529;28;20406;-60
2023/07/02 08:08:53;;;;;;;15.00;3.80;;;;;;;;;;5061675;28;20499;-60
2023/07/02 08:11:19;;;;;;;11.73;3.93;;;;;;;;;;5063712;28;20036;-60
2023/07/02 08:13:45;;;;;;;11.73;3.50;;;;;;;;;;5069377;28;20498;-60
2023/07/02 08:16:10;;;;;;;12.83;4.03;;;;;;;;;;5069512;28;20048;-60
2023/07/02 08:18:36;;;;;;;14.13;3.90;;;;;;;;;;5069014;28;20518;-61
2023/07/02 08:21:05;;;;;;;11.77;4.10;;;;;;;;;;5069521;28;20044;-60
2023/07/02 08:23:32;;;;;;;10.70;4.20;;;;;;;;;;5064669;28;20044;-60
2023/07/02 08:25:58;;;;;;;15.43;4.33;;;;;;;;;;5048732;28;20051;-60
2023/07/02 08:28:24;;;;;;;13.90;4.00;;;;;;;;;;5048818;28;20048;-60
2023/07/02 08:30:50;;;;;;;14.37;4.50;;;;;;;;;;5048784;28;20402;-61
2023/07/02 08:33:16;;;;;;;14.53;5.03;;;;;;;;;;5061324;28;20044;-61
2023/07/02 08:35:41;;;;;;;13.73;4.67;;;;;;;;;;5066191;28;20505;-60
2023/07/02 08:38:08;;;;;;;11.03;4.50;;;;;;;;;;5069082;28;20037;-60
2023/07/02 08:40:34;;;;;;;9.30;3.27;;;;;;;;;;5051167;28;20051;-61
2023/07/02 08:43:00;;;;;;;6.90;3.33;;;;;;;;;;5048443;28;20041;-60
2023/07/02 08:45:26;;;;;;;7.50;3.00;;;;;;;;;;5048853;28;20037;-60
2023/07/02 08:47:55;;;;;;;10.90;3.27;;;;;;;;;;5048701;28;20048;-60
2023/07/02 08:50:21;;;;;;;15.20;3.43;;;;;;;;;;5048578;28;20057;-60
2023/07/02 08:52:46;;;;;;;7.63;3.30;;;;;;;;;;5048804;28;20123;-60
2023/07/02 08:55:12;;;;;;;10.47;4.03;;;;;;;;;;5053186;28;20135;-60
2023/07/02 08:57:38;;;;;;;10.07;3.63;;;;;;;;;;5068273;28;20053;-60
2023/07/02 09:00:08;;;;;;;13.23;4.27;;;;;;;;;;5064432;28;20037;-60
2023/07/02 09:02:34;;;;;;;7.30;3.33;;;;;;;;;;5068353;28;20109;-60
2023/07/02 09:05:01;;;;;;;15.00;4.23;;;;;;;;;;5067945;28;20029;-60
2023/07/02 09:07:27;;;;;;;9.13;4.00;;;;;;;;;;5068243;28;20048;-61
2023/07/02 09:09:53;;;;;;;12.00;4.07;;;;;;;;;;5062275;28;20044;-60
2023/07/02 09:12:25;;;;;;;11.20;4.27;;;;;;;;;;5048191;28;20099;-60
2023/07/02 09:14:58;;;;;;;12.43;4.83;;;;;;;;;;5048176;28;20053;-60
2023/07/02 09:17:31;;;;;;;15.23;4.10;;;;;;;;;;5048268;28;20519;-61
2023/07/02 09:20:00;;;;;;;12.18;4.63;;;;;;;;;;5049202;28;20044;-60
2023/07/02 09:22:26;;;;;;;13.53;5.37;;;;;;;;;;5048126;28;20384;-60
2023/07/02 09:24:57;;;;;;;14.50;4.87;;;;;;;;;;5053591;28;20413;-60
2023/07/02 09:27:33;;;;;;;13.10;5.27;;;;;;;;;;5048042;28;20052;-60
2023/07/02 09:30:05;;;;;;;13.40;4.70;;;;;;;;;;5047449;28;20048;-60
2023/07/02 09:32:32;;;;;;;14.32;5.00;;;;;;;;;;5048117;28;20210;-60
2023/07/02 09:34:58;;;;;;;11.73;4.20;;;;;;;;;;5048228;28;20057;-59
2023/07/02 09:37:24;;;;;;;16.10;5.43;;;;;;;;;;5056976;28;20069;-60
2023/07/02 09:39:57;;;;;;;14.67;5.47;;;;;;;;;;5048370;28;20483;-60
2023/07/02 09:42:25;;;;;;;13.07;5.30;;;;;;;;;;5047771;28;20052;-60
2023/07/02 09:44:58;;;;;;;14.70;4.90;;;;;;;;;;5051772;28;20420;-60
2023/07/02 09:47:24;;;;;;;;;;;;;;;;;;5048626;28;20072;-59
2023/07/02 09:49:54;;;;;;;12.77;5.83;;;;;;;;;;5048260;28;20370;-59
2023/07/02 09:52:21;;;;;;;13.57;4.73;;;;;;;;;;5063851;28;20048;-60
2023/07/02 09:54:47;;;;;;;15.33;5.10;;;;;;;;;;5068143;28;20048;-60
2023/07/02 09:57:13;;;;;;;10.20;4.13;;;;;;;;;;5068397;28;20129;-60
2023/07/02 09:59:39;;;;;;;15.13;4.53;;;;;;;;;;5068114;28;20057;-60
2023/07/02 10:02:05;;;;;;;12.37;4.63;;;;;;;;;;5048497;28;20045;-60
2023/07/02 10:04:42;;;;;;;14.60;5.03;;;;;;;;;;5052056;28;20040;-60
2023/07/02 10:07:08;;;;;;;10.47;3.90;;;;;;;;;;5070231;28;20113;-60
2023/07/02 10:09:41;;;;;;;12.07;4.43;;;;;;;;;;5058645;28;20037;-60
2023/07/02 10:12:20;;;;;;;17.00;5.20;;;;;;;;;;5059213;28;20449;-59
2023/07/02 10:14:47;;;;;;;15.33;4.97;;;;;;;;;;5061576;28;20040;-60
2023/07/02 10:17:30;;;;;;;15.97;5.23;;;;;;;;;;5071477;28;20502;-60
2023/07/02 10:19:57;;;;;;;12.60;3.92;;;;;;;;;;5070851;28;20056;-60
2023/07/02 10:22:23;;;;;;;12.93;5.60;;;;;;;;;;5072026;28;20074;-60
2023/07/02 10:24:53;;;;;;;14.33;4.60;;;;;;;;;;5070949;28;20391;-60
2023/07/02 10:27:19;;;;;;;14.70;4.23;;;;;;;;;;5055546;28;20128;-60
2023/07/02 10:29:51;;;;;;;11.70;3.93;;;;;;;;;;5065985;28;20097;-60
2023/07/02 10:32:30;;;;;;;11.60;4.50;;;;;;;;;;5070392;28;20056;-60
2023/07/02 10:34:58;;;;;;;11.37;4.10;;;;;;;;;;5070618;28;20561;-61
2023/07/02 10:37:24;;;;;;;12.20;3.97;;;;;;;;;;5069446;28;20038;-60
2023/07/02 10:39:51;;;;;;;11.97;4.40;;;;;;;;;;5071003;28;20131;-60
2023/07/02 10:42:17;;;;;;;11.47;4.13;;;;;;;;;;5070582;28;20052;-61
2023/07/02 10:44:53;;;;;;;15.17;5.23;;;;;;;;;;5069666;28;20040;-60
2023/07/02 10:47:19;;;;;;;9.57;4.40;;;;;;;;;;5061955;28;20041;-60
2023/07/02 10:49:45;;;;;;;14.87;3.87;;;;;;;;;;5065999;28;20547;-60
2023/07/02 10:52:11;;;;;;;9.30;3.40;;;;;;;;;;5071236;28;20078;-61
2023/07/02 10:54:44;;;;;;;9.17;3.80;;;;;;;;;;5062079;28;20052;-61
2023/07/02 10:57:13;;;;;;;11.07;3.35;;;;;;;;;;5053273;28;20140;-61
2023/07/02 10:59:39;;;;;;;8.97;3.37;;;;;;;;;;5058903;28;20052;-61
2023/07/02 11:02:06;;;;;;;8.90;2.93;;;;;;;;;;5050744;28;20045;-61
2023/07/02 11:04:33;;;;;;;10.07;3.60;;;;;;;;;;5050553;28;20053;-62
2023/07/02 11:06:59;;;;;;;11.80;3.73;;;;;;;;;;5070902;28;20530;-61
2023/07/02 11:09:26;;;;;;;11.00;3.70;;;;;;;;;;5070508;28;20040;-61
2023/07/02 11:11:59;;;;;;;8.07;3.33;;;;;;;;;;5061937;28;20060;-61
2023/07/02 11:14:24;;;;;;;;;;;;;;;;;;5050537;28;20418;-61
2023/07/02 11:16:54;;;;;;;8.83;3.77;;;;;;;;;;5050517;28;19928;-61
2023/07/02 11:19:20;;;;;;;10.20;3.50;;;;;;;;;;5067595;28;20052;-60
2023/07/02 11:21:56;;;;;;;11.00;4.10;;;;;;;;;;5063423;28;20040;-60
2023/07/02 11:24:38;;;;;;;12.23;3.73;;;;;;;;;;5064554;28;20495;-61
2023/07/02 11:27:05;;;;;;;8.47;3.87;;;;;;;;;;5068439;28;20041;-61
2023/07/02 11:29:32;;;;;;;10.70;3.73;;;;;;;;;;5057252;28;20499;-60
2023/07/02 11:32:09;;;;;;;8.63;3.90;;;;;;;;;;5066096;28;20041;-61
2023/07/02 11:34:35;;;;;;;8.23;3.43;;;;;;;;;;5061921;28;20394;-61
2023/07/02 11:37:01;;;;;;;10.20;4.13;;;;;;;;;;5065360;28;20315;-61
2023/07/02 11:39:27;;;;;;;9.40;4.03;;;;;;;;;;5062208;28;20128;-61
2023/07/02 11:41:53;;;;;;;10.67;4.00;;;;;;;;;;5067069;28;20336;-61
2023/07/02 11:44:19;;;;;;;9.13;2.97;;;;;;;;;;5068282;28;20079;-61
2023/07/02 11:46:46;;;;;;;8.53;3.37;;;;;;;;;;5056192;28;20033;-61
2023/07/02 11:49:12;;;;;;;10.83;3.20;;;;;;;;;;5069039;28;20094;-61
2023/07/02 11:51:39;;;;;;;6.93;3.37;;;;;;;;;;5069711;28;20047;-61
2023/07/02 11:54:05;;;;;;;8.47;2.73;;;;;;;;;;5068984;28;20072;-61
2023/07/02 11:56:31;;;;;;;11.43;3.83;;;;;;;;;;5069706;28;20047;-61
2023/07/02 11:58:57;;;;;;;10.57;3.77;;;;;;;;;;5068259;28;20037;-61
2023/07/02 12:01:23;;;;;;;8.83;3.80;;;;;;;;;;5067703;28;20045;-61
2023/07/02 12:03:49;;;;;;;12.97;3.30;;;;;;;;;;5066012;28;20106;-61
2023/07/02 12:06:15;;;;;;;8.57;3.70;;;;;;;;;;5066108;28;20139;-61
2023/07/02 12:08:41;;;;;;;8.17;2.70;;;;;;;;;;5052975;28;20120;-61
2023/07/02 12:11:08;;;;;;;7.83;3.27;;;;;;;;;;5069776;28;20044;-61
2023/07/02 12:13:34;;;;;;;16.13;2.70;;;;;;;;;;5069237;28;20102;-60
2023/07/02 12:16:00;;;;;;;9.30;3.17;;;;;;;;;;5066341;28;20032;-61
2023/07/02 12:18:26;;;;;;;8.17;3.20;;;;;;;;;;5062958;28;20044;-61
2023/07/02 12:20:52;;;;;;;8.30;3.03;;;;;;;;;;5066604;28;20486;-61
2023/07/02 12:23:18;;;;;;;9.77;2.97;;;;;;;;;;5069404;28;20052;-60
2023/07/02 12:25:44;;;;;;;9.70;3.00;;;;;;;;;;5069135;28;20099;-61
2023/07/02 12:28:10;;;;;;;7.17;2.67;;;;;;;;;;5068024;28;20045;-61
2023/07/02 12:30:36;;;;;;;8.30;3.40;;;;;;;;;;5068482;28;20084;-61
2023/07/02 12:33:02;;;;;;;9.33;3.33;;;;;;;;;;5054357;28;20056;-61
2023/07/02 12:35:28;;;;;;;8.70;3.07;;;;;;;;;;5052598;28;20048;-61
2023/07/02 12:37:54;;;;;;;20.57;3.67;;;;;;;;;;5060283;28;20101;-62
2023/07/02 12:40:21;;;;;;;6.10;3.20;;;;;;;;;;5068700;28;20052;-60
2023/07/02 12:42:47;;;;;;;6.90;3.37;;;;;;;;;;5061464;28;20041;-62
2023/07/02 12:45:14;;;;;;;9.40;4.13;;;;;;;;;;5059872;28;20044;-61
2023/07/02 12:47:41;;;;;;;9.20;3.30;;;;;;;;;;5066023;28;20064;-61
2023/07/02 12:50:07;;;;;;;7.93;3.57;;;;;;;;;;5048540;28;20041;-61
2023/07/02 12:52:33;;;;;;;10.50;3.20;;;;;;;;;;5052338;28;20419;-60
2023/07/02 12:55:00;;;;;;;8.40;3.37;;;;;;;;;;5064037;28;20037;-61
2023/07/02 12:57:26;;;;;;;8.40;3.43;;;;;;;;;;5062492;28;20048;-61
2023/07/02 12:59:53;;;;;;;8.93;3.30;;;;;;;;;;5053689;28;20045;-61
2023/07/02 13:02:19;;;;;;;11.63;3.67;;;;;;;;;;5056881;28;20052;-61
2023/07/02 13:04:44;;;;;;;10.03;3.57;;;;;;;;;;5060804;28;20041;-61
2023/07/02 13:07:10;;;;;;;7.07;3.33;;;;;;;;;;5053635;28;20044;-61
2023/07/02 13:09:36;;;;;;;7.40;3.43;;;;;;;;;;5058998;28;20521;-61
2023/07/02 13:12:02;;;;;;;6.57;3.60;;;;;;;;;;5068876;28;20119;-61
2023/07/02 13:14:28;;;;;;;12.93;4.37;;;;;;;;;;5048173;28;20396;-61
2023/07/02 13:16:54;;;;;;;10.63;4.13;;;;;;;;;;5061912;28;20123;-61
2023/07/02 13:19:20;;;;;;;7.50;4.10;;;;;;;;;;5067777;28;20135;-61
2023/07/02 13:21:46;;;;;;;8.63;4.00;;;;;;;;;;5068134;28;20056;-61
2023/07/02 13:24:12;;;;;;;8.00;3.80;;;;;;;;;;5068716;28;20516;-61
2023/07/02 13:26:38;;;;;;;12.27;4.50;;;;;;;;;;5052585;28;20483;-61
2023/07/02 13:29:04;;;;;;;9.67;4.10;;;;;;;;;;5068616;28;20059;-61
2023/07/02 13:31:31;;;;;;;7.78;4.47;;;;;;;;;;5066609;28;20045;-61
2023/07/02 13:33:57;;;;;;;11.07;4.45;;;;;;;;;;5067139;28;20068;-61
2023/07/02 13:36:23;;;;;;;11.13;4.00;;;;;;;;;;5066164;28;20048;-61
2023/07/02 13:38:49;;;;;;;9.00;4.10;;;;;;;;;;5066066;28;20036;-61
2023/07/02 13:41:15;;;;;;;12.27;4.43;;;;;;;;;;5068299;28;20316;-61
2023/07/02 13:43:41;;;;;;;9.50;4.33;;;;;;;;;;5063612;28;20045;-61
2023/07/02 13:46:07;;;;;;;9.90;4.03;;;;;;;;;;5057053;28;20051;-61
2023/07/02 13:48:34;;;;;;;9.88;4.60;;;;;;;;;;5049151;28;20052;-61
2023/07/02 13:51:00;;;;;;;9.93;4.43;;;;;;;;;;5058747;28;20045;-61
2023/07/02 13:53:26;;;;;;;8.80;4.37;;;;;;;;;;5048281;28;20047;-61
2023/07/02 13:55:52;;;;;;;8.30;4.50;;;;;;;;;;5049475;28;20052;-61
2023/07/02 13:58:18;;;;;;;9.63;5.17;;;;;;;;;;5063708;28;20055;-61
2023/07/02 14:00:44;;;;;;;11.17;4.70;;;;;;;;;;5064718;28;20569;-61
2023/07/02 14:03:10;;;;;;;10.10;3.70;;;;;;;;;;5048339;28;20041;-61
2023/07/02 14:05:36;;;;;;;11.33;4.80;;;;;;;;;;5061780;28;20044;-61
2023/07/02 14:08:02;;;;;;;11.77;4.67;;;;;;;;;;5058757;28;20049;-61
2023/07/02 14:10:28;;;;;;;9.30;4.47;;;;;;;;;;5048040;28;20495;-61
2023/07/02 14:12:54;;;;;;;14.43;5.13;;;;;;;;;;5059550;28;20056;-61
2023/07/02 14:15:21;;;;;;;9.77;4.13;;;;;;;;;;5048235;28;20140;-61
2023/07/02 14:17:47;;;;;;;10.47;4.53;;;;;;;;;;5053127;28;20072;-61
2023/07/02 14:20:13;;;;;;;9.87;4.37;;;;;;;;;;5068149;28;20047;-61
2023/07/02 14:22:39;;;;;;;8.83;4.20;;;;;;;;;;5067878;28;20049;-61
2023/07/02 14:25:05;;;;;;;11.37;4.30;;;;;;;;;;5065388;28;20460;-61
2023/07/02 14:27:31;;;;;;;7.60;3.60;;;;;;;;;;5066151;28;20544;-61